sensor_id;sensor_type;location;lat;lon;timestamp;temperature;humidity
29551;DHT22;16488;52.396;10.696;2022-07-06T00:01:00;17.50;99.60
29551;DHT22;16488;52.396;10.696;2022-07-06T00:03:25;17.40;99.90
29551;DHT22;16488;52.396;10.696;2022-07-06T00:05:51;17.40;99.90
29551;DHT22;16488;52.396;10.696;2022-07-06T00:08:16;17.30;99.90
29551;DHT22;16488;52.396;10.696;2022-07-06T00:10:42;17.30;99.90
29551;DHT22;16488;52.396;10.696;2022-07-06T00:13:09;17.10;99.90
29551;DHT22;16488;52.396;10.696;2022-07-06T00:15:34;16.90;99.90
29551;DHT22;16488;52.396;10.696;2022-07-06T00:18:00;17.00;99.90
29551;DHT22;16488;52.396;10.696;2022-07-06T00:20:26;16.90;99.90
29551;DHT22;16488;52.396;10.696;2022-07-06T00:25:18;16.50;99.90
29551;DHT22;16488;52.396;10.696;2022-07-06T00:27:43;16.50;99.90
29551;DHT22;16488;52.396;10.696;2022-07-06T00:30:09;16.40;99.90
29551;DHT22;16488;52.396;10.696;2022-07-06T00:32:34;16.40;99.90
29551;DHT22;16488;52.396;10.696;2022-07-06T00:35:00;16.50;99.90
29551;DHT22;16488;52.396;10.696;2022-07-06T00:37:25;16.50;99.90
29551;DHT22;16488;52.396;10.696;2022-07-06T00:39:51;16.50;99.90
29551;DHT22;16488;52.396;10.696;2022-07-06T00:42:16;16.50;99.90
29551;DHT22;16488;52.396;10.696;2022-07-06T00:44:42;16.50;99.90
29551;DHT22;16488;52.396;10.696;2022-07-06T00:47:07;16.40;99.90
29551;DHT22;16488;52.396;10.696;2022-07-06T00:49:34;16.30;99.90
29551;DHT22;16488;52.396;10.696;2022-07-06T00:52:18;16.30;99.90
29551;DHT22;16488;52.396;10.696;2022-07-06T00:54:45;16.20;99.90
29551;DHT22;16488;52.396;10.696;2022-07-06T00:57:12;16.20;99.90
29551;DHT22;16488;52.396;10.696;2022-07-06T00:59:37;16.30;99.90
29551;DHT22;16488;52.396;10.696;2022-07-06T01:02:03;16.30;99.90
29551;DHT22;16488;52.396;10.696;2022-07-06T01:04:29;16.30;99.90
29551;DHT22;16488;52.396;10.696;2022-07-06T01:06:55;16.30;99.90
29551;DHT22;16488;52.396;10.696;2022-07-06T01:09:21;16.20;99.90
29551;DHT22;16488;52.396;10.696;2022-07-06T01:11:47;16.30;99.90
29551;DHT22;16488;52.396;10.696;2022-07-06T01:14:14;16.40;99.90
29551;DHT22;16488;52.396;10.696;2022-07-06T01:16:40;16.40;99.90
29551;DHT22;16488;52.396;10.696;2022-07-06T01:19:05;16.40;99.90
29551;DHT22;16488;52.396;10.696;2022-07-06T01:21:31;16.30;99.90
29551;DHT22;16488;52.396;10.696;2022-07-06T01:23:56;16.30;99.90
29551;DHT22;16488;52.396;10.696;2022-07-06T01:26:22;16.30;99.90
29551;DHT22;16488;52.396;10.696;2022-07-06T01:28:51;16.30;99.90
29551;DHT22;16488;52.396;10.696;2022-07-06T01:31:22;16.40;99.90
29551;DHT22;16488;52.396;10.696;2022-07-06T01:33:49;16.40;99.90
29551;DHT22;16488;52.396;10.696;2022-07-06T01:36:16;16.70;99.90
29551;DHT22;16488;52.396;10.696;2022-07-06T01:38:55;16.80;99.90
29551;DHT22;16488;52.396;10.696;2022-07-06T01:41:24;17.00;99.90
29551;DHT22;16488;52.396;10.696;2022-07-06T01:43:50;17.10;99.90
29551;DHT22;16488;52.396;10.696;2022-07-06T01:46:16;17.10;99.90
29551;DHT22;16488;52.396;10.696;2022-07-06T01:48:42;17.10;99.90
29551;DHT22;16488;52.396;10.696;2022-07-06T01:51:08;17.20;99.90
29551;DHT22;16488;52.396;10.696;2022-07-06T01:53:34;17.30;99.90
29551;DHT22;16488;52.396;10.696;2022-07-06T01:55:59;17.40;99.90
29551;DHT22;16488;52.396;10.696;2022-07-06T01:58:25;17.40;99.90
29551;DHT22;16488;52.396;10.696;2022-07-06T02:00:50;17.50;99.90
29551;DHT22;16488;52.396;10.696;2022-07-06T02:03:16;17.60;99.90
29551;DHT22;16488;52.396;10.696;2022-07-06T02:05:42;17.60;99.90
29551;DHT22;16488;52.396;10.696;2022-07-06T02:08:07;17.30;99.90
29551;DHT22;16488;52.396;10.696;2022-07-06T02:10:33;17.20;99.90
29551;DHT22;16488;52.396;10.696;2022-07-06T02:12:58;17.20;99.90
29551;DHT22;16488;52.396;10.696;2022-07-06T02:15:24;17.30;99.90
29551;DHT22;16488;52.396;10.696;2022-07-06T02:17:49;17.20;99.90
29551;DHT22;16488;52.396;10.696;2022-07-06T02:20:15;17.10;99.90
29551;DHT22;16488;52.396;10.696;2022-07-06T02:22:41;17.30;99.90
29551;DHT22;16488;52.396;10.696;2022-07-06T02:25:07;17.40;99.90
29551;DHT22;16488;52.396;10.696;2022-07-06T02:27:32;17.50;99.90
29551;DHT22;16488;52.396;10.696;2022-07-06T02:29:58;17.30;99.90
29551;DHT22;16488;52.396;10.696;2022-07-06T02:32:23;17.40;99.90
29551;DHT22;16488;52.396;10.696;2022-07-06T02:34:49;17.30;99.90
29551;DHT22;16488;52.396;10.696;2022-07-06T02:37:15;17.30;99.90
29551;DHT22;16488;52.396;10.696;2022-07-06T02:39:40;17.40;99.90
29551;DHT22;16488;52.396;10.696;2022-07-06T02:42:06;17.20;99.90
29551;DHT22;16488;52.396;10.696;2022-07-06T02:44:32;16.90;99.90
29551;DHT22;16488;52.396;10.696;2022-07-06T02:46:57;16.80;99.90
29551;DHT22;16488;52.396;10.696;2022-07-06T02:49:23;16.50;99.90
29551;DHT22;16488;52.396;10.696;2022-07-06T02:51:48;16.50;99.90
29551;DHT22;16488;52.396;10.696;2022-07-06T02:54:14;16.30;99.90
29551;DHT22;16488;52.396;10.696;2022-07-06T02:56:39;16.30;99.90
29551;DHT22;16488;52.396;10.696;2022-07-06T02:59:05;16.20;99.90
29551;DHT22;16488;52.396;10.696;2022-07-06T03:01:30;16.20;99.90
29551;DHT22;16488;52.396;10.696;2022-07-06T03:03:56;16.20;99.90
29551;DHT22;16488;52.396;10.696;2022-07-06T03:06:21;16.20;99.90
29551;DHT22;16488;52.396;10.696;2022-07-06T03:08:47;16.10;99.90
29551;DHT22;16488;52.396;10.696;2022-07-06T03:11:12;15.90;99.90
29551;DHT22;16488;52.396;10.696;2022-07-06T03:13:38;15.90;99.90
29551;DHT22;16488;52.396;10.696;2022-07-06T03:16:04;15.70;99.90
29551;DHT22;16488;52.396;10.696;2022-07-06T03:18:29;15.50;99.90
29551;DHT22;16488;52.396;10.696;2022-07-06T03:20:55;15.40;99.90
29551;DHT22;16488;52.396;10.696;2022-07-06T03:23:20;15.30;99.90
29551;DHT22;16488;52.396;10.696;2022-07-06T03:25:46;15.10;99.90
29551;DHT22;16488;52.396;10.696;2022-07-06T03:28:11;15.00;99.90
29551;DHT22;16488;52.396;10.696;2022-07-06T03:30:37;14.90;99.90
29551;DHT22;16488;52.396;10.696;2022-07-06T03:33:03;14.90;99.90
29551;DHT22;16488;52.396;10.696;2022-07-06T03:35:28;14.90;99.90
29551;DHT22;16488;52.396;10.696;2022-07-06T03:37:54;15.00;99.90
29551;DHT22;16488;52.396;10.696;2022-07-06T03:40:20;15.00;99.90
29551;DHT22;16488;52.396;10.696;2022-07-06T03:42:45;14.90;99.90
29551;DHT22;16488;52.396;10.696;2022-07-06T03:45:11;14.90;99.90
29551;DHT22;16488;52.396;10.696;2022-07-06T03:47:37;14.70;99.90
29551;DHT22;16488;52.396;10.696;2022-07-06T03:50:02;14.60;99.90
29551;DHT22;16488;52.396;10.696;2022-07-06T03:52:28;14.50;99.90
29551;DHT22;16488;52.396;10.696;2022-07-06T03:54:55;14.60;99.90
29551;DHT22;16488;52.396;10.696;2022-07-06T03:57:21;14.60;99.90
29551;DHT22;16488;52.396;10.696;2022-07-06T03:59:47;14.60;99.90
29551;DHT22;16488;52.396;10.696;2022-07-06T04:02:12;14.60;99.90
29551;DHT22;16488;52.396;10.696;2022-07-06T04:04:38;14.50;99.90
29551;DHT22;16488;52.396;10.696;2022-07-06T04:07:03;14.50;99.90
29551;DHT22;16488;52.396;10.696;2022-07-06T04:09:29;14.50;99.90
29551;DHT22;16488;52.396;10.696;2022-07-06T04:11:54;14.60;99.90
29551;DHT22;16488;52.396;10.696;2022-07-06T04:14:20;14.70;99.90
29551;DHT22;16488;52.396;10.696;2022-07-06T04:16:45;14.70;99.90
29551;DHT22;16488;52.396;10.696;2022-07-06T04:19:11;14.60;99.90
29551;DHT22;16488;52.396;10.696;2022-07-06T04:21:37;14.50;99.90
29551;DHT22;16488;52.396;10.696;2022-07-06T04:24:02;14.50;99.90
29551;DHT22;16488;52.396;10.696;2022-07-06T04:26:28;14.30;99.90
29551;DHT22;16488;52.396;10.696;2022-07-06T04:28:53;14.30;99.90
29551;DHT22;16488;52.396;10.696;2022-07-06T04:31:19;14.30;99.90
29551;DHT22;16488;52.396;10.696;2022-07-06T04:33:45;14.30;99.90
29551;DHT22;16488;52.396;10.696;2022-07-06T04:36:10;14.30;99.90
29551;DHT22;16488;52.396;10.696;2022-07-06T04:38:36;14.30;99.90
29551;DHT22;16488;52.396;10.696;2022-07-06T04:41:02;14.50;99.90
29551;DHT22;16488;52.396;10.696;2022-07-06T04:43:27;14.60;99.90
29551;DHT22;16488;52.396;10.696;2022-07-06T04:45:53;14.60;99.90
29551;DHT22;16488;52.396;10.696;2022-07-06T04:48:19;14.60;99.90
29551;DHT22;16488;52.396;10.696;2022-07-06T04:50:44;14.70;99.90
29551;DHT22;16488;52.396;10.696;2022-07-06T04:53:10;14.70;99.90
29551;DHT22;16488;52.396;10.696;2022-07-06T04:55:35;14.80;99.90
29551;DHT22;16488;52.396;10.696;2022-07-06T04:58:01;14.80;99.90
29551;DHT22;16488;52.396;10.696;2022-07-06T05:00:27;14.80;99.90
29551;DHT22;16488;52.396;10.696;2022-07-06T05:02:55;14.80;99.90
29551;DHT22;16488;52.396;10.696;2022-07-06T05:05:20;14.90;99.90
29551;DHT22;16488;52.396;10.696;2022-07-06T05:07:46;14.70;99.90
29551;DHT22;16488;52.396;10.696;2022-07-06T05:10:12;14.80;99.90
29551;DHT22;16488;52.396;10.696;2022-07-06T05:12:38;14.80;99.90
29551;DHT22;16488;52.396;10.696;2022-07-06T05:15:04;14.80;99.90
29551;DHT22;16488;52.396;10.696;2022-07-06T05:17:30;14.80;99.90
29551;DHT22;16488;52.396;10.696;2022-07-06T05:19:55;14.80;99.90
29551;DHT22;16488;52.396;10.696;2022-07-06T05:22:21;14.70;99.90
29551;DHT22;16488;52.396;10.696;2022-07-06T05:24:46;14.70;99.90
29551;DHT22;16488;52.396;10.696;2022-07-06T05:27:12;14.80;99.90
29551;DHT22;16488;52.396;10.696;2022-07-06T05:29:37;14.90;99.90
29551;DHT22;16488;52.396;10.696;2022-07-06T05:32:03;15.00;99.90
29551;DHT22;16488;52.396;10.696;2022-07-06T05:34:29;15.00;99.90
29551;DHT22;16488;52.396;10.696;2022-07-06T05:36:54;15.10;99.90
29551;DHT22;16488;52.396;10.696;2022-07-06T05:39:20;15.20;99.90
29551;DHT22;16488;52.396;10.696;2022-07-06T05:41:48;15.30;99.90
29551;DHT22;16488;52.396;10.696;2022-07-06T05:44:14;15.40;99.90
29551;DHT22;16488;52.396;10.696;2022-07-06T05:46:40;15.40;99.90
29551;DHT22;16488;52.396;10.696;2022-07-06T05:49:05;15.50;99.90
29551;DHT22;16488;52.396;10.696;2022-07-06T05:51:50;15.50;99.90
29551;DHT22;16488;52.396;10.696;2022-07-06T05:54:15;15.60;99.90
29551;DHT22;16488;52.396;10.696;2022-07-06T05:56:41;15.60;99.90
29551;DHT22;16488;52.396;10.696;2022-07-06T05:59:07;15.70;99.90
29551;DHT22;16488;52.396;10.696;2022-07-06T06:01:32;15.80;99.90
29551;DHT22;16488;52.396;10.696;2022-07-06T06:03:58;15.80;99.90
29551;DHT22;16488;52.396;10.696;2022-07-06T06:06:25;15.80;99.90
29551;DHT22;16488;52.396;10.696;2022-07-06T06:08:51;15.70;99.90
29551;DHT22;16488;52.396;10.696;2022-07-06T06:11:16;15.70;99.90
29551;DHT22;16488;52.396;10.696;2022-07-06T06:13:42;15.80;99.90
29551;DHT22;16488;52.396;10.696;2022-07-06T06:16:07;15.80;99.90
29551;DHT22;16488;52.396;10.696;2022-07-06T06:18:33;15.90;99.90
29551;DHT22;16488;52.396;10.696;2022-07-06T06:20:59;15.90;99.90
29551;DHT22;16488;52.396;10.696;2022-07-06T06:23:24;15.90;99.90
29551;DHT22;16488;52.396;10.696;2022-07-06T06:25:50;16.00;99.90
29551;DHT22;16488;52.396;10.696;2022-07-06T06:28:16;16.10;99.90
29551;DHT22;16488;52.396;10.696;2022-07-06T06:30:41;16.10;99.90
29551;DHT22;16488;52.396;10.696;2022-07-06T06:33:14;16.20;99.90
29551;DHT22;16488;52.396;10.696;2022-07-06T06:35:49;16.30;99.90
29551;DHT22;16488;52.396;10.696;2022-07-06T06:38:15;16.40;99.90
29551;DHT22;16488;52.396;10.696;2022-07-06T06:40:41;16.50;99.90
29551;DHT22;16488;52.396;10.696;2022-07-06T06:43:07;16.50;99.90
29551;DHT22;16488;52.396;10.696;2022-07-06T06:45:33;16.50;99.90
29551;DHT22;16488;52.396;10.696;2022-07-06T06:47:59;16.60;99.90
29551;DHT22;16488;52.396;10.696;2022-07-06T06:50:24;16.70;99.90
29551;DHT22;16488;52.396;10.696;2022-07-06T06:52:51;16.70;99.90
29551;DHT22;16488;52.396;10.696;2022-07-06T06:55:17;16.60;99.90
29551;DHT22;16488;52.396;10.696;2022-07-06T06:57:43;16.50;99.90
29551;DHT22;16488;52.396;10.696;2022-07-06T07:00:09;16.60;99.90
29551;DHT22;16488;52.396;10.696;2022-07-06T07:02:35;16.70;99.90
29551;DHT22;16488;52.396;10.696;2022-07-06T07:05:01;16.60;99.90
29551;DHT22;16488;52.396;10.696;2022-07-06T07:07:26;16.70;99.90
29551;DHT22;16488;52.396;10.696;2022-07-06T07:09:52;16.80;99.90
29551;DHT22;16488;52.396;10.696;2022-07-06T07:12:17;16.80;99.90
29551;DHT22;16488;52.396;10.696;2022-07-06T07:14:44;16.80;99.90
29551;DHT22;16488;52.396;10.696;2022-07-06T07:17:09;16.80;99.90
29551;DHT22;16488;52.396;10.696;2022-07-06T07:19:36;16.80;99.90
29551;DHT22;16488;52.396;10.696;2022-07-06T07:22:02;16.70;99.90
29551;DHT22;16488;52.396;10.696;2022-07-06T07:24:28;16.60;99.90
29551;DHT22;16488;52.396;10.696;2022-07-06T07:26:53;16.70;99.90
29551;DHT22;16488;52.396;10.696;2022-07-06T07:29:19;16.70;99.90
29551;DHT22;16488;52.396;10.696;2022-07-06T07:31:44;16.70;99.90
29551;DHT22;16488;52.396;10.696;2022-07-06T07:34:10;16.70;99.90
29551;DHT22;16488;52.396;10.696;2022-07-06T07:36:35;16.60;99.90
29551;DHT22;16488;52.396;10.696;2022-07-06T07:39:02;16.80;99.90
29551;DHT22;16488;52.396;10.696;2022-07-06T07:41:28;16.90;99.90
29551;DHT22;16488;52.396;10.696;2022-07-06T07:43:53;16.90;99.90
29551;DHT22;16488;52.396;10.696;2022-07-06T07:46:19;16.90;99.90
29551;DHT22;16488;52.396;10.696;2022-07-06T07:48:44;17.00;99.70
29551;DHT22;16488;52.396;10.696;2022-07-06T07:51:10;17.00;99.50
29551;DHT22;16488;52.396;10.696;2022-07-06T07:53:36;16.90;99.90
29551;DHT22;16488;52.396;10.696;2022-07-06T07:56:01;17.00;99.90
29551;DHT22;16488;52.396;10.696;2022-07-06T07:58:27;17.10;99.90
29551;DHT22;16488;52.396;10.696;2022-07-06T08:00:54;17.10;99.90
29551;DHT22;16488;52.396;10.696;2022-07-06T08:03:19;17.10;98.30
29551;DHT22;16488;52.396;10.696;2022-07-06T08:05:45;17.00;98.60
29551;DHT22;16488;52.396;10.696;2022-07-06T08:08:13;17.20;99.30
29551;DHT22;16488;52.396;10.696;2022-07-06T08:10:38;17.30;98.60
29551;DHT22;16488;52.396;10.696;2022-07-06T08:13:04;17.20;97.80
29551;DHT22;16488;52.396;10.696;2022-07-06T08:15:29;17.20;97.90
29551;DHT22;16488;52.396;10.696;2022-07-06T08:17:56;17.30;97.20
29551;DHT22;16488;52.396;10.696;2022-07-06T08:20:22;17.20;97.30
29551;DHT22;16488;52.396;10.696;2022-07-06T08:22:47;17.30;97.50
29551;DHT22;16488;52.396;10.696;2022-07-06T08:25:13;17.30;97.10
29551;DHT22;16488;52.396;10.696;2022-07-06T08:27:39;17.30;96.90
29551;DHT22;16488;52.396;10.696;2022-07-06T08:30:07;17.30;96.80
29551;DHT22;16488;52.396;10.696;2022-07-06T08:32:32;17.30;96.80
29551;DHT22;16488;52.396;10.696;2022-07-06T08:34:58;17.30;96.80
29551;DHT22;16488;52.396;10.696;2022-07-06T08:37:23;17.40;96.50
29551;DHT22;16488;52.396;10.696;2022-07-06T08:39:49;17.50;97.00
29551;DHT22;16488;52.396;10.696;2022-07-06T08:42:16;17.60;96.30
29551;DHT22;16488;52.396;10.696;2022-07-06T08:44:43;17.60;95.80
29551;DHT22;16488;52.396;10.696;2022-07-06T08:47:10;17.50;94.30
29551;DHT22;16488;52.396;10.696;2022-07-06T08:49:36;17.50;93.40
29551;DHT22;16488;52.396;10.696;2022-07-06T08:52:04;17.60;94.20
29551;DHT22;16488;52.396;10.696;2022-07-06T08:54:30;17.60;93.80
29551;DHT22;16488;52.396;10.696;2022-07-06T08:56:56;17.70;93.20
29551;DHT22;16488;52.396;10.696;2022-07-06T08:59:22;17.70;93.00
29551;DHT22;16488;52.396;10.696;2022-07-06T09:01:47;17.70;93.10
29551;DHT22;16488;52.396;10.696;2022-07-06T09:04:16;17.70;93.40
29551;DHT22;16488;52.396;10.696;2022-07-06T09:06:43;17.80;94.30
29551;DHT22;16488;52.396;10.696;2022-07-06T09:09:23;17.90;93.00
29551;DHT22;16488;52.396;10.696;2022-07-06T09:11:49;17.90;93.10
29551;DHT22;16488;52.396;10.696;2022-07-06T09:14:15;17.90;93.90
29551;DHT22;16488;52.396;10.696;2022-07-06T09:16:41;18.00;93.60
29551;DHT22;16488;52.396;10.696;2022-07-06T09:19:07;17.90;92.00
29551;DHT22;16488;52.396;10.696;2022-07-06T09:21:33;18.00;91.90
29551;DHT22;16488;52.396;10.696;2022-07-06T09:24:05;18.00;91.10
29551;DHT22;16488;52.396;10.696;2022-07-06T09:26:31;17.90;90.30
29551;DHT22;16488;52.396;10.696;2022-07-06T09:28:57;17.90;90.90
29551;DHT22;16488;52.396;10.696;2022-07-06T09:31:24;18.00;90.60
29551;DHT22;16488;52.396;10.696;2022-07-06T09:34:00;18.10;90.20
29551;DHT22;16488;52.396;10.696;2022-07-06T09:39:29;18.20;90.50
29551;DHT22;16488;52.396;10.696;2022-07-06T09:41:59;18.30;88.20
29551;DHT22;16488;52.396;10.696;2022-07-06T09:44:30;18.40;86.90
29551;DHT22;16488;52.396;10.696;2022-07-06T09:47:01;18.40;86.10
29551;DHT22;16488;52.396;10.696;2022-07-06T09:49:28;18.30;85.70
29551;DHT22;16488;52.396;10.696;2022-07-06T09:51:58;18.20;85.20
29551;DHT22;16488;52.396;10.696;2022-07-06T09:54:24;18.20;85.70
29551;DHT22;16488;52.396;10.696;2022-07-06T09:56:51;18.10;83.00
29551;DHT22;16488;52.396;10.696;2022-07-06T09:59:17;18.10;84.20
29551;DHT22;16488;52.396;10.696;2022-07-06T10:01:47;18.20;85.00
29551;DHT22;16488;52.396;10.696;2022-07-06T10:04:15;18.20;83.60
29551;DHT22;16488;52.396;10.696;2022-07-06T10:06:44;18.30;83.20
29551;DHT22;16488;52.396;10.696;2022-07-06T10:09:10;18.40;82.80
29551;DHT22;16488;52.396;10.696;2022-07-06T10:11:41;18.40;82.60
29551;DHT22;16488;52.396;10.696;2022-07-06T10:14:08;18.60;81.40
29551;DHT22;16488;52.396;10.696;2022-07-06T10:16:36;18.60;81.10
29551;DHT22;16488;52.396;10.696;2022-07-06T10:19:07;18.70;82.60
29551;DHT22;16488;52.396;10.696;2022-07-06T10:21:35;18.80;83.10
29551;DHT22;16488;52.396;10.696;2022-07-06T10:24:02;19.10;80.90
29551;DHT22;16488;52.396;10.696;2022-07-06T10:26:28;19.00;78.70
29551;DHT22;16488;52.396;10.696;2022-07-06T10:28:57;19.00;79.70
29551;DHT22;16488;52.396;10.696;2022-07-06T10:31:24;18.90;77.70
29551;DHT22;16488;52.396;10.696;2022-07-06T10:33:50;18.70;77.50
29551;DHT22;16488;52.396;10.696;2022-07-06T10:36:16;18.60;78.60
29551;DHT22;16488;52.396;10.696;2022-07-06T10:38:51;18.50;80.20
29551;DHT22;16488;52.396;10.696;2022-07-06T10:41:33;18.30;80.80
29551;DHT22;16488;52.396;10.696;2022-07-06T10:44:18;18.30;81.60
29551;DHT22;16488;52.396;10.696;2022-07-06T10:46:51;18.30;81.90
29551;DHT22;16488;52.396;10.696;2022-07-06T10:49:18;18.20;82.10
29551;DHT22;16488;52.396;10.696;2022-07-06T10:51:44;18.10;83.50
29551;DHT22;16488;52.396;10.696;2022-07-06T10:54:09;18.20;84.20
29551;DHT22;16488;52.396;10.696;2022-07-06T10:56:51;18.20;84.60
29551;DHT22;16488;52.396;10.696;2022-07-06T10:59:23;18.30;86.00
29551;DHT22;16488;52.396;10.696;2022-07-06T11:02:11;18.30;83.90
29551;DHT22;16488;52.396;10.696;2022-07-06T11:04:38;18.30;85.10
29551;DHT22;16488;52.396;10.696;2022-07-06T11:07:11;18.30;85.40
29551;DHT22;16488;52.396;10.696;2022-07-06T11:09:37;18.30;84.90
29551;DHT22;16488;52.396;10.696;2022-07-06T11:12:19;18.30;85.20
29551;DHT22;16488;52.396;10.696;2022-07-06T11:14:46;18.20;85.30
29551;DHT22;16488;52.396;10.696;2022-07-06T11:17:13;18.30;84.60
29551;DHT22;16488;52.396;10.696;2022-07-06T11:20:09;18.20;82.80
29551;DHT22;16488;52.396;10.696;2022-07-06T11:22:37;18.20;84.70
29551;DHT22;16488;52.396;10.696;2022-07-06T11:25:04;18.20;83.80
29551;DHT22;16488;52.396;10.696;2022-07-06T11:27:32;18.20;85.00
29551;DHT22;16488;52.396;10.696;2022-07-06T11:29:59;18.20;84.00
29551;DHT22;16488;52.396;10.696;2022-07-06T11:32:25;18.20;84.50
29551;DHT22;16488;52.396;10.696;2022-07-06T11:34:52;18.20;84.10
29551;DHT22;16488;52.396;10.696;2022-07-06T11:37:18;18.20;84.00
29551;DHT22;16488;52.396;10.696;2022-07-06T11:39:45;18.10;84.20
29551;DHT22;16488;52.396;10.696;2022-07-06T11:42:16;18.10;85.10
29551;DHT22;16488;52.396;10.696;2022-07-06T11:44:44;18.10;84.90
29551;DHT22;16488;52.396;10.696;2022-07-06T11:47:11;18.10;84.20
29551;DHT22;16488;52.396;10.696;2022-07-06T11:49:39;18.10;86.00
29551;DHT22;16488;52.396;10.696;2022-07-06T11:52:09;18.30;86.20
29551;DHT22;16488;52.396;10.696;2022-07-06T11:54:36;18.40;84.10
29551;DHT22;16488;52.396;10.696;2022-07-06T11:57:01;18.50;83.60
29551;DHT22;16488;52.396;10.696;2022-07-06T11:59:34;18.40;85.00
29551;DHT22;16488;52.396;10.696;2022-07-06T12:02:15;18.60;84.50
29551;DHT22;16488;52.396;10.696;2022-07-06T12:04:44;18.80;83.20
29551;DHT22;16488;52.396;10.696;2022-07-06T12:07:16;18.80;83.50
29551;DHT22;16488;52.396;10.696;2022-07-06T12:09:44;18.80;84.00
29551;DHT22;16488;52.396;10.696;2022-07-06T12:12:11;18.80;82.70
29551;DHT22;16488;52.396;10.696;2022-07-06T12:14:38;18.70;83.80
29551;DHT22;16488;52.396;10.696;2022-07-06T12:17:06;18.70;83.20
29551;DHT22;16488;52.396;10.696;2022-07-06T12:19:33;18.80;82.10
29551;DHT22;16488;52.396;10.696;2022-07-06T12:22:00;18.90;80.50
29551;DHT22;16488;52.396;10.696;2022-07-06T12:24:28;19.20;83.40
29551;DHT22;16488;52.396;10.696;2022-07-06T12:26:56;19.20;78.70
29551;DHT22;16488;52.396;10.696;2022-07-06T12:29:22;19.10;79.40
29551;DHT22;16488;52.396;10.696;2022-07-06T12:31:48;19.10;80.40
29551;DHT22;16488;52.396;10.696;2022-07-06T12:34:22;19.10;80.50
29551;DHT22;16488;52.396;10.696;2022-07-06T12:36:52;19.00;80.90
29551;DHT22;16488;52.396;10.696;2022-07-06T12:39:20;18.90;80.90
29551;DHT22;16488;52.396;10.696;2022-07-06T12:41:51;18.70;82.50
29551;DHT22;16488;52.396;10.696;2022-07-06T12:44:21;18.60;83.30
29551;DHT22;16488;52.396;10.696;2022-07-06T12:46:49;18.50;84.00
29551;DHT22;16488;52.396;10.696;2022-07-06T12:49:20;18.40;84.60
29551;DHT22;16488;52.396;10.696;2022-07-06T12:51:56;18.30;84.60
29551;DHT22;16488;52.396;10.696;2022-07-06T12:54:23;18.20;84.70
29551;DHT22;16488;52.396;10.696;2022-07-06T12:56:59;18.20;87.50
29551;DHT22;16488;52.396;10.696;2022-07-06T12:59:25;18.20;85.90
29551;DHT22;16488;52.396;10.696;2022-07-06T13:01:55;18.10;84.00
29551;DHT22;16488;52.396;10.696;2022-07-06T13:04:24;18.20;85.00
29551;DHT22;16488;52.396;10.696;2022-07-06T13:06:51;18.20;85.80
29551;DHT22;16488;52.396;10.696;2022-07-06T13:09:17;18.40;85.50
29551;DHT22;16488;52.396;10.696;2022-07-06T13:11:44;18.50;82.00
29551;DHT22;16488;52.396;10.696;2022-07-06T13:14:10;18.60;80.90
29551;DHT22;16488;52.396;10.696;2022-07-06T13:16:36;18.70;81.90
29551;DHT22;16488;52.396;10.696;2022-07-06T13:19:02;18.80;81.00
29551;DHT22;16488;52.396;10.696;2022-07-06T13:21:28;18.70;80.00
29551;DHT22;16488;52.396;10.696;2022-07-06T13:23:53;18.80;81.70
29551;DHT22;16488;52.396;10.696;2022-07-06T13:26:19;19.00;82.00
29551;DHT22;16488;52.396;10.696;2022-07-06T13:28:45;19.10;80.50
29551;DHT22;16488;52.396;10.696;2022-07-06T13:31:10;19.30;78.50
29551;DHT22;16488;52.396;10.696;2022-07-06T13:33:38;19.40;80.10
29551;DHT22;16488;52.396;10.696;2022-07-06T13:36:08;19.40;79.10
29551;DHT22;16488;52.396;10.696;2022-07-06T13:38:33;19.50;76.50
29551;DHT22;16488;52.396;10.696;2022-07-06T13:40:59;19.40;75.60
29551;DHT22;16488;52.396;10.696;2022-07-06T13:43:24;19.40;74.60
29551;DHT22;16488;52.396;10.696;2022-07-06T13:45:50;19.40;75.00
29551;DHT22;16488;52.396;10.696;2022-07-06T13:48:16;19.30;74.90
29551;DHT22;16488;52.396;10.696;2022-07-06T13:50:41;19.20;72.50
29551;DHT22;16488;52.396;10.696;2022-07-06T13:53:07;19.20;73.80
29551;DHT22;16488;52.396;10.696;2022-07-06T13:55:32;19.10;75.20
29551;DHT22;16488;52.396;10.696;2022-07-06T13:57:58;19.10;74.50
29551;DHT22;16488;52.396;10.696;2022-07-06T14:00:24;19.10;74.50
29551;DHT22;16488;52.396;10.696;2022-07-06T14:02:50;19.10;75.00
29551;DHT22;16488;52.396;10.696;2022-07-06T14:05:16;19.20;75.90
29551;DHT22;16488;52.396;10.696;2022-07-06T14:07:41;19.30;77.10
29551;DHT22;16488;52.396;10.696;2022-07-06T14:10:07;19.40;75.40
29551;DHT22;16488;52.396;10.696;2022-07-06T14:12:33;19.40;74.70
29551;DHT22;16488;52.396;10.696;2022-07-06T14:14:58;19.50;75.40
29551;DHT22;16488;52.396;10.696;2022-07-06T14:17:25;19.60;74.70
29551;DHT22;16488;52.396;10.696;2022-07-06T14:19:51;19.70;76.50
29551;DHT22;16488;52.396;10.696;2022-07-06T14:22:17;19.80;75.60
29551;DHT22;16488;52.396;10.696;2022-07-06T14:24:43;19.80;76.20
29551;DHT22;16488;52.396;10.696;2022-07-06T14:27:08;20.00;76.60
29551;DHT22;16488;52.396;10.696;2022-07-06T14:29:34;20.10;75.00
29551;DHT22;16488;52.396;10.696;2022-07-06T14:32:00;20.00;73.00
29551;DHT22;16488;52.396;10.696;2022-07-06T14:34:25;20.00;72.00
29551;DHT22;16488;52.396;10.696;2022-07-06T14:36:51;20.10;72.90
29551;DHT22;16488;52.396;10.696;2022-07-06T14:39:17;20.20;70.70
29551;DHT22;16488;52.396;10.696;2022-07-06T14:41:43;20.20;71.20
29551;DHT22;16488;52.396;10.696;2022-07-06T14:44:08;20.30;73.10
29551;DHT22;16488;52.396;10.696;2022-07-06T14:46:34;20.40;71.10
29551;DHT22;16488;52.396;10.696;2022-07-06T14:49:00;20.40;71.10
29551;DHT22;16488;52.396;10.696;2022-07-06T14:51:27;20.30;71.30
29551;DHT22;16488;52.396;10.696;2022-07-06T14:53:52;20.60;71.50
29551;DHT22;16488;52.396;10.696;2022-07-06T14:56:19;20.80;71.30
29551;DHT22;16488;52.396;10.696;2022-07-06T14:58:44;20.80;71.10
29551;DHT22;16488;52.396;10.696;2022-07-06T15:01:10;20.70;71.90
29551;DHT22;16488;52.396;10.696;2022-07-06T15:03:35;20.70;71.60
29551;DHT22;16488;52.396;10.696;2022-07-06T15:06:01;20.30;70.70
29551;DHT22;16488;52.396;10.696;2022-07-06T15:08:26;20.00;72.70
29551;DHT22;16488;52.396;10.696;2022-07-06T15:10:52;19.90;73.00
29551;DHT22;16488;52.396;10.696;2022-07-06T15:13:18;19.80;73.80
29551;DHT22;16488;52.396;10.696;2022-07-06T15:15:44;19.60;73.70
29551;DHT22;16488;52.396;10.696;2022-07-06T15:18:09;19.40;73.40